sensor_id;sensor_type;location;lat;lon;timestamp;temperature;humidity
17128;DHT22;8679;50.842;4.322;2022-07-26T00:01:18;17.40;99.90
17128;DHT22;8679;50.842;4.322;2022-07-26T00:03:45;17.40;99.90
17128;DHT22;8679;50.842;4.322;2022-07-26T00:06:11;17.40;99.90
17128;DHT22;8679;50.842;4.322;2022-07-26T00:08:36;17.40;99.90
17128;DHT22;8679;50.842;4.322;2022-07-26T00:11:02;17.40;99.90
17128;DHT22;8679;50.842;4.322;2022-07-26T00:13:28;17.40;99.90
17128;DHT22;8679;50.842;4.322;2022-07-26T00:15:54;17.40;99.90
17128;DHT22;8679;50.842;4.322;2022-07-26T00:18:20;17.40;99.90
17128;DHT22;8679;50.842;4.322;2022-07-26T00:20:46;17.40;99.90
17128;DHT22;8679;50.842;4.322;2022-07-26T00:23:13;17.40;99.90
17128;DHT22;8679;50.842;4.322;2022-07-26T00:25:39;17.40;99.90
17128;DHT22;8679;50.842;4.322;2022-07-26T00:28:05;17.40;99.90
17128;DHT22;8679;50.842;4.322;2022-07-26T00:30:32;17.30;99.90
17128;DHT22;8679;50.842;4.322;2022-07-26T00:32:57;17.30;99.90
17128;DHT22;8679;50.842;4.322;2022-07-26T00:35:23;17.30;99.90
17128;DHT22;8679;50.842;4.322;2022-07-26T00:37:49;17.30;99.90
17128;DHT22;8679;50.842;4.322;2022-07-26T00:40:15;17.20;99.90
17128;DHT22;8679;50.842;4.322;2022-07-26T00:42:41;17.30;99.90
17128;DHT22;8679;50.842;4.322;2022-07-26T00:45:08;17.30;99.90
17128;DHT22;8679;50.842;4.322;2022-07-26T00:47:34;17.20;99.90
17128;DHT22;8679;50.842;4.322;2022-07-26T00:50:01;17.30;99.90
17128;DHT22;8679;50.842;4.322;2022-07-26T00:52:27;17.30;99.90
17128;DHT22;8679;50.842;4.322;2022-07-26T00:54:53;17.30;99.90
17128;DHT22;8679;50.842;4.322;2022-07-26T00:57:22;17.30;99.90
17128;DHT22;8679;50.842;4.322;2022-07-26T00:59:48;17.30;99.90
17128;DHT22;8679;50.842;4.322;2022-07-26T01:02:14;17.30;99.90
17128;DHT22;8679;50.842;4.322;2022-07-26T01:04:41;17.30;99.90
17128;DHT22;8679;50.842;4.322;2022-07-26T01:07:09;17.30;99.90
17128;DHT22;8679;50.842;4.322;2022-07-26T01:09:36;17.30;99.90
17128;DHT22;8679;50.842;4.322;2022-07-26T01:12:02;17.30;99.90
17128;DHT22;8679;50.842;4.322;2022-07-26T01:14:28;17.30;99.90
17128;DHT22;8679;50.842;4.322;2022-07-26T01:16:54;17.30;99.90
17128;DHT22;8679;50.842;4.322;2022-07-26T01:19:20;17.30;99.90
17128;DHT22;8679;50.842;4.322;2022-07-26T01:21:46;17.30;99.90
17128;DHT22;8679;50.842;4.322;2022-07-26T01:24:12;17.30;99.90
17128;DHT22;8679;50.842;4.322;2022-07-26T01:26:38;17.30;99.90
17128;DHT22;8679;50.842;4.322;2022-07-26T01:29:04;17.30;99.90
17128;DHT22;8679;50.842;4.322;2022-07-26T01:31:30;17.30;99.90
17128;DHT22;8679;50.842;4.322;2022-07-26T01:33:57;17.30;99.90
17128;DHT22;8679;50.842;4.322;2022-07-26T01:36:23;17.30;99.90
17128;DHT22;8679;50.842;4.322;2022-07-26T01:38:48;17.30;99.90
17128;DHT22;8679;50.842;4.322;2022-07-26T01:41:14;17.20;99.90
17128;DHT22;8679;50.842;4.322;2022-07-26T01:43:40;17.20;99.90
17128;DHT22;8679;50.842;4.322;2022-07-26T01:46:07;17.20;99.90
17128;DHT22;8679;50.842;4.322;2022-07-26T01:48:33;17.20;99.90
17128;DHT22;8679;50.842;4.322;2022-07-26T01:50:59;17.30;99.90
17128;DHT22;8679;50.842;4.322;2022-07-26T01:53:25;17.30;99.90
17128;DHT22;8679;50.842;4.322;2022-07-26T01:55:51;17.20;99.90
17128;DHT22;8679;50.842;4.322;2022-07-26T01:58:17;17.30;99.90
17128;DHT22;8679;50.842;4.322;2022-07-26T02:00:43;17.20;99.90
17128;DHT22;8679;50.842;4.322;2022-07-26T02:03:09;17.30;99.90
17128;DHT22;8679;50.842;4.322;2022-07-26T02:05:35;17.20;99.90
17128;DHT22;8679;50.842;4.322;2022-07-26T02:08:01;17.30;99.90
17128;DHT22;8679;50.842;4.322;2022-07-26T02:10:27;17.20;99.90
17128;DHT22;8679;50.842;4.322;2022-07-26T02:13:21;17.30;99.90
17128;DHT22;8679;50.842;4.322;2022-07-26T02:15:47;17.30;99.90
17128;DHT22;8679;50.842;4.322;2022-07-26T02:18:13;17.30;99.90
17128;DHT22;8679;50.842;4.322;2022-07-26T02:20:38;17.30;99.90
17128;DHT22;8679;50.842;4.322;2022-07-26T02:23:04;17.30;99.90
17128;DHT22;8679;50.842;4.322;2022-07-26T02:25:30;17.20;99.90
17128;DHT22;8679;50.842;4.322;2022-07-26T02:27:56;17.20;99.90
17128;DHT22;8679;50.842;4.322;2022-07-26T02:30:22;17.20;99.90
17128;DHT22;8679;50.842;4.322;2022-07-26T02:32:47;17.20;99.90
17128;DHT22;8679;50.842;4.322;2022-07-26T02:35:13;17.20;99.90
17128;DHT22;8679;50.842;4.322;2022-07-26T02:37:39;17.30;99.90
17128;DHT22;8679;50.842;4.322;2022-07-26T02:40:06;17.30;99.90
17128;DHT22;8679;50.842;4.322;2022-07-26T02:42:32;17.30;99.90
17128;DHT22;8679;50.842;4.322;2022-07-26T02:44:58;17.30;99.90
17128;DHT22;8679;50.842;4.322;2022-07-26T02:47:24;17.40;99.90
17128;DHT22;8679;50.842;4.322;2022-07-26T02:49:50;17.30;99.90
17128;DHT22;8679;50.842;4.322;2022-07-26T02:52:16;17.30;99.90
17128;DHT22;8679;50.842;4.322;2022-07-26T02:54:42;17.30;99.90
17128;DHT22;8679;50.842;4.322;2022-07-26T02:57:08;17.30;99.90
17128;DHT22;8679;50.842;4.322;2022-07-26T02:59:33;17.30;99.90
17128;DHT22;8679;50.842;4.322;2022-07-26T03:01:59;17.30;99.90
17128;DHT22;8679;50.842;4.322;2022-07-26T03:04:25;17.30;99.90
17128;DHT22;8679;50.842;4.322;2022-07-26T03:06:50;17.30;99.90
17128;DHT22;8679;50.842;4.322;2022-07-26T03:09:16;17.30;99.90
17128;DHT22;8679;50.842;4.322;2022-07-26T03:11:41;17.30;99.90
17128;DHT22;8679;50.842;4.322;2022-07-26T03:14:07;17.20;99.90
17128;DHT22;8679;50.842;4.322;2022-07-26T03:16:33;17.20;99.90
17128;DHT22;8679;50.842;4.322;2022-07-26T03:18:59;17.20;99.90
17128;DHT22;8679;50.842;4.322;2022-07-26T03:21:26;17.20;99.90
17128;DHT22;8679;50.842;4.322;2022-07-26T03:23:51;17.10;99.90
17128;DHT22;8679;50.842;4.322;2022-07-26T03:26:18;17.10;99.90
17128;DHT22;8679;50.842;4.322;2022-07-26T03:28:43;17.10;99.90
17128;DHT22;8679;50.842;4.322;2022-07-26T03:31:10;17.10;99.90
17128;DHT22;8679;50.842;4.322;2022-07-26T03:33:36;17.10;99.90
17128;DHT22;8679;50.842;4.322;2022-07-26T03:36:02;17.10;99.90
17128;DHT22;8679;50.842;4.322;2022-07-26T03:38:27;17.10;99.90
17128;DHT22;8679;50.842;4.322;2022-07-26T03:40:53;17.10;99.90
17128;DHT22;8679;50.842;4.322;2022-07-26T03:43:19;17.10;99.90
17128;DHT22;8679;50.842;4.322;2022-07-26T03:45:45;17.00;99.90
17128;DHT22;8679;50.842;4.322;2022-07-26T03:48:10;17.00;99.90
17128;DHT22;8679;50.842;4.322;2022-07-26T03:50:36;17.00;99.90
17128;DHT22;8679;50.842;4.322;2022-07-26T03:53:03;17.00;99.90
17128;DHT22;8679;50.842;4.322;2022-07-26T03:55:29;16.90;99.90
17128;DHT22;8679;50.842;4.322;2022-07-26T03:58:13;16.90;99.90
17128;DHT22;8679;50.842;4.322;2022-07-26T04:00:39;16.90;99.90
17128;DHT22;8679;50.842;4.322;2022-07-26T04:03:05;16.90;99.90
17128;DHT22;8679;50.842;4.322;2022-07-26T04:05:30;16.90;99.90
17128;DHT22;8679;50.842;4.322;2022-07-26T04:07:56;16.90;99.90
17128;DHT22;8679;50.842;4.322;2022-07-26T04:10:22;16.90;99.90
17128;DHT22;8679;50.842;4.322;2022-07-26T04:12:50;16.90;99.90
17128;DHT22;8679;50.842;4.322;2022-07-26T04:15:16;16.90;99.90
17128;DHT22;8679;50.842;4.322;2022-07-26T04:17:43;16.90;99.90
17128;DHT22;8679;50.842;4.322;2022-07-26T04:20:10;16.90;99.90
17128;DHT22;8679;50.842;4.322;2022-07-26T04:22:37;16.90;99.90
17128;DHT22;8679;50.842;4.322;2022-07-26T04:25:05;16.90;99.90
17128;DHT22;8679;50.842;4.322;2022-07-26T04:27:31;16.80;99.90
17128;DHT22;8679;50.842;4.322;2022-07-26T04:29:57;16.80;99.90
17128;DHT22;8679;50.842;4.322;2022-07-26T04:32:23;16.80;99.90
17128;DHT22;8679;50.842;4.322;2022-07-26T04:34:49;16.80;99.90
17128;DHT22;8679;50.842;4.322;2022-07-26T04:37:14;16.80;99.90
17128;DHT22;8679;50.842;4.322;2022-07-26T04:39:40;16.80;99.90
17128;DHT22;8679;50.842;4.322;2022-07-26T04:42:06;16.90;99.90
17128;DHT22;8679;50.842;4.322;2022-07-26T04:44:31;16.90;99.90
17128;DHT22;8679;50.842;4.322;2022-07-26T04:46:57;16.90;99.90
17128;DHT22;8679;50.842;4.322;2022-07-26T04:49:23;16.90;99.90
17128;DHT22;8679;50.842;4.322;2022-07-26T04:51:48;16.90;99.90
17128;DHT22;8679;50.842;4.322;2022-07-26T04:54:14;16.90;99.90
17128;DHT22;8679;50.842;4.322;2022-07-26T04:56:45;16.90;99.90
17128;DHT22;8679;50.842;4.322;2022-07-26T04:59:11;16.90;99.90
17128;DHT22;8679;50.842;4.322;2022-07-26T05:01:37;16.90;99.90
17128;DHT22;8679;50.842;4.322;2022-07-26T05:04:02;16.90;99.90
17128;DHT22;8679;50.842;4.322;2022-07-26T05:06:28;16.90;99.90
17128;DHT22;8679;50.842;4.322;2022-07-26T05:08:54;16.90;99.90
17128;DHT22;8679;50.842;4.322;2022-07-26T05:11:20;16.90;99.90
17128;DHT22;8679;50.842;4.322;2022-07-26T05:13:45;16.90;99.90
17128;DHT22;8679;50.842;4.322;2022-07-26T05:16:11;16.90;99.90
17128;DHT22;8679;50.842;4.322;2022-07-26T05:18:36;16.90;99.90
17128;DHT22;8679;50.842;4.322;2022-07-26T05:21:02;16.80;99.90
17128;DHT22;8679;50.842;4.322;2022-07-26T05:23:28;16.80;99.90
17128;DHT22;8679;50.842;4.322;2022-07-26T05:25:53;16.80;99.90
17128;DHT22;8679;50.842;4.322;2022-07-26T05:28:19;16.80;99.90
17128;DHT22;8679;50.842;4.322;2022-07-26T05:30:45;16.80;99.90
17128;DHT22;8679;50.842;4.322;2022-07-26T05:33:11;16.90;99.90
17128;DHT22;8679;50.842;4.322;2022-07-26T05:35:37;16.90;99.90
17128;DHT22;8679;50.842;4.322;2022-07-26T05:38:02;17.00;99.90
17128;DHT22;8679;50.842;4.322;2022-07-26T05:40:28;17.00;99.90
17128;DHT22;8679;50.842;4.322;2022-07-26T05:42:54;17.00;99.90
17128;DHT22;8679;50.842;4.322;2022-07-26T05:45:20;17.10;99.90
17128;DHT22;8679;50.842;4.322;2022-07-26T05:47:49;17.20;99.90
17128;DHT22;8679;50.842;4.322;2022-07-26T05:50:14;17.30;99.90
17128;DHT22;8679;50.842;4.322;2022-07-26T05:52:40;17.50;99.90
17128;DHT22;8679;50.842;4.322;2022-07-26T05:55:06;17.50;99.90
17128;DHT22;8679;50.842;4.322;2022-07-26T05:57:32;17.60;99.90
17128;DHT22;8679;50.842;4.322;2022-07-26T05:59:58;17.70;99.90
17128;DHT22;8679;50.842;4.322;2022-07-26T06:02:23;17.70;99.90
17128;DHT22;8679;50.842;4.322;2022-07-26T06:04:49;17.80;99.90
17128;DHT22;8679;50.842;4.322;2022-07-26T06:07:15;17.80;99.90
17128;DHT22;8679;50.842;4.322;2022-07-26T06:09:41;17.90;99.90
17128;DHT22;8679;50.842;4.322;2022-07-26T06:12:07;18.00;99.90
17128;DHT22;8679;50.842;4.322;2022-07-26T06:14:33;18.00;99.90
17128;DHT22;8679;50.842;4.322;2022-07-26T06:16:58;18.00;99.90
17128;DHT22;8679;50.842;4.322;2022-07-26T06:19:24;18.10;99.90
17128;DHT22;8679;50.842;4.322;2022-07-26T06:21:50;18.10;99.90
17128;DHT22;8679;50.842;4.322;2022-07-26T06:24:15;18.00;99.90
17128;DHT22;8679;50.842;4.322;2022-07-26T06:26:41;18.00;99.90
17128;DHT22;8679;50.842;4.322;2022-07-26T06:29:07;18.00;99.90
17128;DHT22;8679;50.842;4.322;2022-07-26T06:31:32;18.00;99.90
17128;DHT22;8679;50.842;4.322;2022-07-26T06:33:58;18.00;99.90
17128;DHT22;8679;50.842;4.322;2022-07-26T06:36:24;18.00;99.90
17128;DHT22;8679;50.842;4.322;2022-07-26T06:38:49;18.00;99.90
17128;DHT22;8679;50.842;4.322;2022-07-26T06:41:15;18.00;99.90
17128;DHT22;8679;50.842;4.322;2022-07-26T06:43:41;17.90;99.90
17128;DHT22;8679;50.842;4.322;2022-07-26T06:46:06;18.00;99.90
17128;DHT22;8679;50.842;4.322;2022-07-26T06:48:34;18.00;99.90
17128;DHT22;8679;50.842;4.322;2022-07-26T06:50:59;18.00;99.90
17128;DHT22;8679;50.842;4.322;2022-07-26T06:53:25;18.00;99.90
17128;DHT22;8679;50.842;4.322;2022-07-26T06:55:51;18.10;99.90
17128;DHT22;8679;50.842;4.322;2022-07-26T06:58:16;18.20;99.90
17128;DHT22;8679;50.842;4.322;2022-07-26T07:00:42;18.20;99.90
17128;DHT22;8679;50.842;4.322;2022-07-26T07:03:08;18.20;99.90
17128;DHT22;8679;50.842;4.322;2022-07-26T07:05:34;18.20;99.90
17128;DHT22;8679;50.842;4.322;2022-07-26T07:07:59;18.30;99.90
17128;DHT22;8679;50.842;4.322;2022-07-26T07:10:25;18.30;99.90
17128;DHT22;8679;50.842;4.322;2022-07-26T07:12:51;18.40;99.90
17128;DHT22;8679;50.842;4.322;2022-07-26T07:15:16;18.50;99.90
17128;DHT22;8679;50.842;4.322;2022-07-26T07:17:42;18.60;99.90
17128;DHT22;8679;50.842;4.322;2022-07-26T07:20:08;18.60;99.90
17128;DHT22;8679;50.842;4.322;2022-07-26T07:22:34;18.60;99.90
17128;DHT22;8679;50.842;4.322;2022-07-26T07:25:00;18.70;99.90
17128;DHT22;8679;50.842;4.322;2022-07-26T07:27:25;18.70;99.90
17128;DHT22;8679;50.842;4.322;2022-07-26T07:29:52;18.80;99.90
17128;DHT22;8679;50.842;4.322;2022-07-26T07:32:18;18.80;99.90
17128;DHT22;8679;50.842;4.322;2022-07-26T07:34:45;18.90;99.90
17128;DHT22;8679;50.842;4.322;2022-07-26T07:37:10;18.90;99.90
17128;DHT22;8679;50.842;4.322;2022-07-26T07:39:39;18.90;99.90
17128;DHT22;8679;50.842;4.322;2022-07-26T07:42:04;18.90;99.90
17128;DHT22;8679;50.842;4.322;2022-07-26T07:44:30;18.90;99.90
17128;DHT22;8679;50.842;4.322;2022-07-26T07:46:56;18.90;99.90
17128;DHT22;8679;50.842;4.322;2022-07-26T07:49:21;19.00;99.90
17128;DHT22;8679;50.842;4.322;2022-07-26T07:51:47;18.90;99.90
17128;DHT22;8679;50.842;4.322;2022-07-26T07:54:13;19.00;99.90
17128;DHT22;8679;50.842;4.322;2022-07-26T07:56:41;18.90;99.90
17128;DHT22;8679;50.842;4.322;2022-07-26T07:59:07;18.80;99.90
17128;DHT22;8679;50.842;4.322;2022-07-26T08:01:33;18.80;99.90
17128;DHT22;8679;50.842;4.322;2022-07-26T08:03:58;18.70;99.90
17128;DHT22;8679;50.842;4.322;2022-07-26T08:06:24;18.70;99.90
17128;DHT22;8679;50.842;4.322;2022-07-26T08:08:50;18.70;99.90
17128;DHT22;8679;50.842;4.322;2022-07-26T08:11:15;18.80;99.90
17128;DHT22;8679;50.842;4.322;2022-07-26T08:13:41;18.90;99.90
17128;DHT22;8679;50.842;4.322;2022-07-26T08:16:07;18.90;99.90
17128;DHT22;8679;50.842;4.322;2022-07-26T08:18:34;19.00;99.90
17128;DHT22;8679;50.842;4.322;2022-07-26T08:20:59;19.00;99.90
17128;DHT22;8679;50.842;4.322;2022-07-26T08:23:27;18.90;99.90
17128;DHT22;8679;50.842;4.322;2022-07-26T08:25:53;18.90;99.90
17128;DHT22;8679;50.842;4.322;2022-07-26T08:28:19;19.10;99.90
17128;DHT22;8679;50.842;4.322;2022-07-26T08:30:44;19.30;99.90
17128;DHT22;8679;50.842;4.322;2022-07-26T08:33:10;19.20;99.90
17128;DHT22;8679;50.842;4.322;2022-07-26T08:35:36;19.30;99.90
17128;DHT22;8679;50.842;4.322;2022-07-26T08:38:01;19.40;99.90
17128;DHT22;8679;50.842;4.322;2022-07-26T08:40:27;19.40;99.90
17128;DHT22;8679;50.842;4.322;2022-07-26T08:42:55;19.40;99.90
17128;DHT22;8679;50.842;4.322;2022-07-26T08:47:47;19.60;99.90
17128;DHT22;8679;50.842;4.322;2022-07-26T08:50:13;19.80;99.90
17128;DHT22;8679;50.842;4.322;2022-07-26T08:52:39;19.80;99.90
17128;DHT22;8679;50.842;4.322;2022-07-26T08:55:05;19.80;99.90
17128;DHT22;8679;50.842;4.322;2022-07-26T08:57:31;19.70;99.90
17128;DHT22;8679;50.842;4.322;2022-07-26T09:00:20;19.70;99.90
17128;DHT22;8679;50.842;4.322;2022-07-26T09:02:59;19.60;99.90
17128;DHT22;8679;50.842;4.322;2022-07-26T09:05:28;19.80;99.90
17128;DHT22;8679;50.842;4.322;2022-07-26T09:07:55;19.90;99.90
17128;DHT22;8679;50.842;4.322;2022-07-26T09:10:21;20.10;99.90
17128;DHT22;8679;50.842;4.322;2022-07-26T09:12:55;20.10;99.90
17128;DHT22;8679;50.842;4.322;2022-07-26T09:15:26;20.20;99.90
17128;DHT22;8679;50.842;4.322;2022-07-26T09:17:56;20.30;99.90
17128;DHT22;8679;50.842;4.322;2022-07-26T09:20:27;20.30;99.90
17128;DHT22;8679;50.842;4.322;2022-07-26T09:23:04;20.40;99.90
17128;DHT22;8679;50.842;4.322;2022-07-26T09:25:33;20.60;99.90
17128;DHT22;8679;50.842;4.322;2022-07-26T09:28:00;20.70;99.90
17128;DHT22;8679;50.842;4.322;2022-07-26T09:30:28;20.80;99.90
17128;DHT22;8679;50.842;4.322;2022-07-26T09:33:05;20.80;99.90
17128;DHT22;8679;50.842;4.322;2022-07-26T09:35:33;20.70;99.90
17128;DHT22;8679;50.842;4.322;2022-07-26T09:38:00;20.50;99.90
17128;DHT22;8679;50.842;4.322;2022-07-26T09:40:33;20.40;99.90
17128;DHT22;8679;50.842;4.322;2022-07-26T09:43:05;20.30;99.90
17128;DHT22;8679;50.842;4.322;2022-07-26T09:45:33;20.30;99.90
17128;DHT22;8679;50.842;4.322;2022-07-26T09:47:59;20.40;99.90
17128;DHT22;8679;50.842;4.322;2022-07-26T09:50:27;20.40;99.90
17128;DHT22;8679;50.842;4.322;2022-07-26T09:53:09;20.50;99.90
17128;DHT22;8679;50.842;4.322;2022-07-26T09:58:15;20.90;99.90
17128;DHT22;8679;50.842;4.322;2022-07-26T10:00:42;21.00;99.90
17128;DHT22;8679;50.842;4.322;2022-07-26T10:03:08;21.20;99.90
17128;DHT22;8679;50.842;4.322;2022-07-26T10:05:35;21.10;99.90
17128;DHT22;8679;50.842;4.322;2022-07-26T10:08:01;21.20;99.90
17128;DHT22;8679;50.842;4.322;2022-07-26T10:10:29;21.30;99.90
17128;DHT22;8679;50.842;4.322;2022-07-26T10:12:55;21.40;99.90
17128;DHT22;8679;50.842;4.322;2022-07-26T10:18:08;21.60;99.90
17128;DHT22;8679;50.842;4.322;2022-07-26T10:20:52;21.70;99.90
17128;DHT22;8679;50.842;4.322;2022-07-26T10:23:41;21.80;99.90
17128;DHT22;8679;50.842;4.322;2022-07-26T10:26:13;22.00;99.90
17128;DHT22;8679;50.842;4.322;2022-07-26T10:28:54;22.10;99.90
17128;DHT22;8679;50.842;4.322;2022-07-26T10:31:23;22.20;99.90
17128;DHT22;8679;50.842;4.322;2022-07-26T10:33:52;22.30;99.90
17128;DHT22;8679;50.842;4.322;2022-07-26T10:36:25;22.20;99.90
17128;DHT22;8679;50.842;4.322;2022-07-26T10:39:09;22.30;99.90
17128;DHT22;8679;50.842;4.322;2022-07-26T10:41:36;22.30;99.90
17128;DHT22;8679;50.842;4.322;2022-07-26T10:44:32;22.20;99.90
17128;DHT22;8679;50.842;4.322;2022-07-26T10:52:13;22.30;99.90
17128;DHT22;8679;50.842;4.322;2022-07-26T10:57:28;22.30;99.90
17128;DHT22;8679;50.842;4.322;2022-07-26T10:59:55;22.10;99.90
17128;DHT22;8679;50.842;4.322;2022-07-26T11:02:31;22.30;99.90
17128;DHT22;8679;50.842;4.322;2022-07-26T11:05:12;22.20;99.90
17128;DHT22;8679;50.842;4.322;2022-07-26T11:08:01;22.30;99.90
17128;DHT22;8679;50.842;4.322;2022-07-26T11:13:21;21.90;99.90
17128;DHT22;8679;50.842;4.322;2022-07-26T11:15:57;21.90;99.90
17128;DHT22;8679;50.842;4.322;2022-07-26T11:18:25;21.80;99.90
17128;DHT22;8679;50.842;4.322;2022-07-26T11:21:15;21.70;99.90
17128;DHT22;8679;50.842;4.322;2022-07-26T11:23:43;21.70;99.90
17128;DHT22;8679;50.842;4.322;2022-07-26T11:28:59;22.00;99.90
17128;DHT22;8679;50.842;4.322;2022-07-26T11:33:54;22.70;99.90
17128;DHT22;8679;50.842;4.322;2022-07-26T11:36:40;22.60;99.90
17128;DHT22;8679;50.842;4.322;2022-07-26T11:39:12;22.40;99.90
17128;DHT22;8679;50.842;4.322;2022-07-26T11:41:39;22.30;99.90
17128;DHT22;8679;50.842;4.322;2022-07-26T11:44:05;22.20;99.90
17128;DHT22;8679;50.842;4.322;2022-07-26T11:46:37;22.50;99.90
17128;DHT22;8679;50.842;4.322;2022-07-26T11:49:03;22.60;99.90
17128;DHT22;8679;50.842;4.322;2022-07-26T11:51:30;22.70;99.90
17128;DHT22;8679;50.842;4.322;2022-07-26T11:53:56;22.60;99.90
17128;DHT22;8679;50.842;4.322;2022-07-26T11:56:27;22.60;99.90
17128;DHT22;8679;50.842;4.322;2022-07-26T11:58:55;23.00;99.90
17128;DHT22;8679;50.842;4.322;2022-07-26T12:01:23;23.40;99.90
17128;DHT22;8679;50.842;4.322;2022-07-26T12:03:51;23.50;99.90
17128;DHT22;8679;50.842;4.322;2022-07-26T12:06:19;23.10;99.90
17128;DHT22;8679;50.842;4.322;2022-07-26T12:08:46;22.70;99.90
17128;DHT22;8679;50.842;4.322;2022-07-26T12:11:13;22.60;99.90
17128;DHT22;8679;50.842;4.322;2022-07-26T12:13:58;22.50;99.90
17128;DHT22;8679;50.842;4.322;2022-07-26T12:16:43;22.40;99.90
17128;DHT22;8679;50.842;4.322;2022-07-26T12:27:31;22.10;99.90
17128;DHT22;8679;50.842;4.322;2022-07-26T12:32:38;22.20;99.90
17128;DHT22;8679;50.842;4.322;2022-07-26T12:35:13;22.30;99.90
17128;DHT22;8679;50.842;4.322;2022-07-26T12:40:15;22.40;99.90
17128;DHT22;8679;50.842;4.322;2022-07-26T12:42:53;22.40;99.90
17128;DHT22;8679;50.842;4.322;2022-07-26T12:45:23;22.50;99.90
17128;DHT22;8679;50.842;4.322;2022-07-26T12:47:50;22.20;99.90
17128;DHT22;8679;50.842;4.322;2022-07-26T12:50:18;22.40;99.90
17128;DHT22;8679;50.842;4.322;2022-07-26T12:52:45;22.70;99.90
17128;DHT22;8679;50.842;4.322;2022-07-26T12:55:14;22.60;99.90
17128;DHT22;8679;50.842;4.322;2022-07-26T12:57:41;22.80;99.90
17128;DHT22;8679;50.842;4.322;2022-07-26T13:00:08;22.90;99.90
17128;DHT22;8679;50.842;4.322;2022-07-26T13:02:36;23.30;99.90
17128;DHT22;8679;50.842;4.322;2022-07-26T13:05:03;23.70;99.90
17128;DHT22;8679;50.842;4.322;2022-07-26T13:07:29;23.80;99.90
17128;DHT22;8679;50.842;4.322;2022-07-26T13:09:55;23.70;99.90
17128;DHT22;8679;50.842;4.322;2022-07-26T13:12:21;23.50;99.90
17128;DHT22;8679;50.842;4.322;2022-07-26T13:14:47;23.60;99.90
17128;DHT22;8679;50.842;4.322;2022-07-26T13:17:13;23.40;99.90
17128;DHT22;8679;50.842;4.322;2022-07-26T13:19:39;23.20;99.90
17128;DHT22;8679;50.842;4.322;2022-07-26T13:22:06;23.00;99.90
17128;DHT22;8679;50.842;4.322;2022-07-26T13:24:33;22.80;99.90
17128;DHT22;8679;50.842;4.322;2022-07-26T13:26:59;22.60;99.90
17128;DHT22;8679;50.842;4.322;2022-07-26T13:29:26;22.50;99.90
17128;DHT22;8679;50.842;4.322;2022-07-26T13:31:52;22.30;99.90
17128;DHT22;8679;50.842;4.322;2022-07-26T13:34:19;22.10;99.90
17128;DHT22;8679;50.842;4.322;2022-07-26T13:36:45;21.60;99.90
17128;DHT22;8679;50.842;4.322;2022-07-26T13:39:11;21.50;99.90
17128;DHT22;8679;50.842;4.322;2022-07-26T13:41:36;21.40;99.90
17128;DHT22;8679;50.842;4.322;2022-07-26T13:44:03;21.30;99.90
17128;DHT22;8679;50.842;4.322;2022-07-26T13:46:28;21.40;99.90
17128;DHT22;8679;50.842;4.322;2022-07-26T13:48:56;21.50;99.90
17128;DHT22;8679;50.842;4.322;2022-07-26T13:51:23;21.60;99.90
17128;DHT22;8679;50.842;4.322;2022-07-26T13:54:09;21.50;99.90
17128;DHT22;8679;50.842;4.322;2022-07-26T13:56:34;21.70;99.90
17128;DHT22;8679;50.842;4.322;2022-07-26T13:59:00;21.50;99.90
17128;DHT22;8679;50.842;4.322;2022-07-26T14:01:26;21.40;99.90
17128;DHT22;8679;50.842;4.322;2022-07-26T14:03:51;21.40;99.90
17128;DHT22;8679;50.842;4.322;2022-07-26T14:06:17;21.50;99.90
17128;DHT22;8679;50.842;4.322;2022-07-26T14:08:43;21.70;99.90
17128;DHT22;8679;50.842;4.322;2022-07-26T14:11:09;21.90;99.90
17128;DHT22;8679;50.842;4.322;2022-07-26T14:13:35;22.10;99.90
17128;DHT22;8679;50.842;4.322;2022-07-26T14:16:00;22.20;99.90
17128;DHT22;8679;50.842;4.322;2022-07-26T14:18:26;22.40;99.90
17128;DHT22;8679;50.842;4.322;2022-07-26T14:20:51;22.80;99.90
17128;DHT22;8679;50.842;4.322;2022-07-26T14:23:17;23.00;99.90
17128;DHT22;8679;50.842;4.322;2022-07-26T14:25:43;23.00;99.90
17128;DHT22;8679;50.842;4.322;2022-07-26T14:28:08;23.20;99.90
17128;DHT22;8679;50.842;4.322;2022-07-26T14:30:34;23.50;99.90
17128;DHT22;8679;50.842;4.322;2022-07-26T14:33:00;23.70;99.90
17128;DHT22;8679;50.842;4.322;2022-07-26T14:35:26;23.60;99.90
17128;DHT22;8679;50.842;4.322;2022-07-26T14:37:51;23.40;99.90
17128;DHT22;8679;50.842;4.322;2022-07-26T14:40:17;22.90;99.90
17128;DHT22;8679;50.842;4.322;2022-07-26T14:42:44;22.60;99.90
17128;DHT22;8679;50.842;4.322;2022-07-26T14:45:11;22.40;99.90
17128;DHT22;8679;50.842;4.322;2022-07-26T14:47:37;22.50;99.90
17128;DHT22;8679;50.842;4.322;2022-07-26T14:50:04;22.30;99.90
17128;DHT22;8679;50.842;4.322;2022-07-26T14:52:30;22.20;99.90
17128;DHT22;8679;50.842;4.322;2022-07-26T14:54:55;22.40;99.90
17128;DHT22;8679;50.842;4.322;2022-07-26T14:57:21;22.60;99.90
17128;DHT22;8679;50.842;4.322;2022-07-26T14:59:46;22.60;99.90
17128;DHT22;8679;50.842;4.322;2022-07-26T15:02:13;22.60;99.90
17128;DHT22;8679;50.842;4.322;2022-07-26T15:04:39;22.70;99.90
17128;DHT22;8679;50.842;4.322;2022-07-26T15:07:05;22.70;99.90
17128;DHT22;8679;50.842;4.322;2022-07-26T15:09:30;22.80;99.90
17128;DHT22;8679;50.842;4.322;2022-07-26T15:11:56;23.00;99.90
17128;DHT22;8679;50.842;4.322;2022-07-26T15:14:23;23.20;99.90
17128;DHT22;8679;50.842;4.322;2022-07-26T15:16:49;23.30;99.90
17128;DHT22;8679;50.842;4.322;2022-07-26T15:19:14;23.30;99.90
17128;DHT22;8679;50.842;4.322;2022-07-26T15:21:40;23.60;99.90
17128;DHT22;8679;50.842;4.322;2022-07-26T15:24:06;24.30;99.90
17128;DHT22;8679;50.842;4.322;2022-07-26T15:26:33;24.80;99.90
17128;DHT22;8679;50.842;4.322;2022-07-26T15:28:59;25.10;99.90
17128;DHT22;8679;50.842;4.322;2022-07-26T15:31:25;24.90;99.90
17128;DHT22;8679;50.842;4.322;2022-07-26T15:33:50;24.60;99.90
17128;DHT22;8679;50.842;4.322;2022-07-26T15:36:16;24.10;99.90
17128;DHT22;8679;50.842;4.322;2022-07-26T15:38:42;23.70;99.90
17128;DHT22;8679;50.842;4.322;2022-07-26T15:41:09;23.20;99.90
17128;DHT22;8679;50.842;4.322;2022-07-26T15:43:35;23.10;99.90
17128;DHT22;8679;50.842;4.322;2022-07-26T15:46:00;23.20;99.90
17128;DHT22;8679;50.842;4.322;2022-07-26T15:48:26;23.20;99.90
17128;DHT22;8679;50.842;4.322;2022-07-26T15:50:52;23.50;99.90
17128;DHT22;8679;50.842;4.322;2022-07-26T15:53:17;23.80;99.90
17128;DHT22;8679;50.842;4.322;2022-07-26T15:55:43;24.00;99.90
17128;DHT22;8679;50.842;4.322;2022-07-26T15:58:09;24.30;99.90
17128;DHT22;8679;50.842;4.322;2022-07-26T16:00:35;24.30;99.90
17128;DHT22;8679;50.842;4.322;2022-07-26T16:03:00;24.00;99.90
17128;DHT22;8679;50.842;4.322;2022-07-26T16:05:26;23.50;99.90
17128;DHT22;8679;50.842;4.322;2022-07-26T16:07:52;23.40;99.90
17128;DHT22;8679;50.842;4.322;2022-07-26T16:10:18;23.10;99.90
17128;DHT22;8679;50.842;4.322;2022-07-26T16:12:43;23.30;99.90
17128;DHT22;8679;50.842;4.322;2022-07-26T16:15:10;23.40;99.90
17128;DHT22;8679;50.842;4.322;2022-07-26T16:17:35;23.80;99.90
17128;DHT22;8679;50.842;4.322;2022-07-26T16:20:02;24.30;99.90
17128;DHT22;8679;50.842;4.322;2022-07-26T16:22:28;24.50;99.90